Time;durP1;ratioP1;P1;durP2;ratioP2;P2;SDS_P1;SDS_P2;PMS_P1;PMS_P2;Temp;Humidity;BMP_temperature;BMP_pressure;BME280_temperature;BME280_humidity;BME280_pressure;Samples;Min_cycle;Max_cycle;Signal;HPM_P1;HPM_P2
2022/09/08 00:00:26;;;;;;;8.60;4.35;;;;;;;19.11;61.68;100176.84;5117770;28;20035;-71
2022/09/08 00:02:54;;;;;;;11.27;4.53;;;;;;;19.27;61.50;100183.66;5118412;28;20043;-71
2022/09/08 00:05:23;;;;;;;7.63;4.40;;;;;;;19.36;61.12;100180.56;5117908;28;20035;-71
2022/09/08 00:07:52;;;;;;;6.72;4.10;;;;;;;19.44;60.78;100179.50;5114571;28;20036;-71
2022/09/08 00:10:18;;;;;;;10.23;4.57;;;;;;;19.35;61.01;100181.59;5118386;28;20020;-71
2022/09/08 00:12:47;;;;;;;7.40;4.45;;;;;;;19.45;60.02;100181.16;5117416;28;20323;-71
2022/09/08 00:15:13;;;;;;;9.20;4.53;;;;;;;19.38;60.56;100185.72;5118004;28;20078;-71
2022/09/08 00:17:39;;;;;;;10.55;5.05;;;;;;;19.28;60.80;100194.19;5118659;28;20036;-71
2022/09/08 00:20:07;;;;;;;11.07;4.57;;;;;;;19.15;61.38;100196.88;5117698;28;20032;-71
2022/09/08 00:22:32;;;;;;;12.38;5.68;;;;;;;19.14;61.30;100203.28;5116204;28;20036;-71
2022/09/08 00:24:58;;;;;;;9.63;5.18;;;;;;;18.79;62.04;100178.50;5118786;28;20050;-71
2022/09/08 00:27:23;;;;;;;9.27;5.25;;;;;;;19.04;61.61;100201.00;5117742;28;20035;-71
2022/09/08 00:29:49;;;;;;;10.63;5.20;;;;;;;19.15;61.42;100199.56;5115745;28;20024;-71
2022/09/08 00:32:14;;;;;;;15.40;6.32;;;;;;;19.04;61.72;100197.50;5118107;28;20217;-71
2022/09/08 00:34:39;;;;;;;10.07;5.28;;;;;;;18.87;62.76;100193.56;5118934;28;20224;-71
2022/09/08 00:37:05;;;;;;;11.70;5.60;;;;;;;18.72;63.00;100199.91;5117714;28;20036;-71
2022/09/08 00:39:30;;;;;;;12.63;6.00;;;;;;;18.56;64.24;100208.31;5117572;28;20024;-71
2022/09/08 00:41:57;;;;;;;14.95;5.97;;;;;;;18.47;64.26;100201.47;5102160;28;20034;-71
2022/09/08 00:44:49;;;;;;;12.13;5.90;;;;;;;18.57;64.07;100201.09;5117031;28;20039;-71
2022/09/08 00:47:42;;;;;;;11.25;5.85;;;;;;;18.68;63.13;100208.56;5117105;28;20050;-71
2022/09/08 00:50:34;;;;;;;8.85;5.57;;;;;;;18.60;63.28;100206.06;5117784;28;20340;-71
2022/09/08 00:53:04;;;;;;;14.82;6.43;;;;;;;18.61;63.41;100205.03;5112644;28;20047;-71
2022/09/08 00:55:33;;;;;;;12.13;5.38;;;;;;;18.46;63.92;100205.19;5118203;28;20047;-71
2022/09/08 00:57:58;;;;;;;7.78;4.97;;;;;;;18.42;63.39;100209.31;5117647;28;20034;-71
2022/09/08 01:00:24;;;;;;;10.82;4.88;;;;;;;18.37;63.08;100203.72;5119000;28;20031;-70
2022/09/08 01:02:50;;;;;;;9.07;4.95;;;;;;;18.57;62.91;100209.97;5118238;28;20029;-71
2022/09/08 01:05:19;;;;;;;12.32;5.50;;;;;;;18.65;61.95;100217.03;5098957;28;20027;-71
2022/09/08 01:14:51;;;;;;;8.48;5.82;;;;;;;18.32;63.13;100224.94;5112714;28;20066;-71
2022/09/08 01:17:22;;;;;;;8.30;5.40;;;;;;;18.36;62.93;100216.31;5116143;28;20264;-70
2022/09/08 01:19:49;;;;;;;13.25;6.15;;;;;;;18.41;62.35;100213.00;5114806;28;20024;-71
2022/09/08 01:22:27;;;;;;;8.98;5.72;;;;;;;18.24;63.03;100211.72;5121751;28;20070;-71
2022/09/08 01:25:04;;;;;;;7.97;5.88;;;;;;;17.96;64.01;100206.44;5121859;28;20059;-71
2022/09/08 01:27:31;;;;;;;9.48;5.60;;;;;;;18.01;63.69;100206.66;5121235;28;20045;-72
2022/09/08 01:30:01;;;;;;;8.52;5.47;;;;;;;17.81;64.28;100212.75;5102330;28;20019;-71
2022/09/08 01:32:31;;;;;;;7.15;5.60;;;;;;;17.74;64.69;100208.38;5119718;28;20032;-71
2022/09/08 01:34:56;;;;;;;12.00;6.05;;;;;;;17.92;63.95;100205.19;5121919;28;20028;-71
2022/09/08 01:37:22;;;;;;;8.63;5.18;;;;;;;17.84;64.96;100204.31;5120515;28;20039;-71
2022/09/08 01:39:47;;;;;;;8.50;5.85;;;;;;;18.02;64.10;100200.28;5120925;28;20344;-71
2022/09/08 01:42:13;;;;;;;8.63;5.80;;;;;;;18.20;63.50;100205.94;5120492;28;20057;-71
2022/09/08 01:44:38;;;;;;;16.77;5.65;;;;;;;18.29;62.99;100201.22;5101917;28;20412;-71
2022/09/08 01:47:04;;;;;;;11.65;5.80;;;;;;;18.18;63.31;100202.63;5102960;28;20038;-71
2022/09/08 01:49:29;;;;;;;10.30;5.80;;;;;;;18.30;62.85;100203.69;5120221;28;20023;-71
2022/09/08 01:51:55;;;;;;;9.85;5.75;;;;;;;18.40;61.94;100206.00;5121463;28;20046;-71
2022/09/08 01:54:20;;;;;;;10.23;5.50;;;;;;;18.41;61.93;100213.00;5136511;27;20348;-72
2022/09/08 01:56:46;;;;;;;8.63;5.82;;;;;;;18.43;61.49;100208.28;5102678;28;20024;-71
2022/09/08 01:59:11;;;;;;;14.60;6.18;;;;;;;18.44;61.88;100210.75;5121071;28;20214;-70
2022/09/08 02:01:37;;;;;;;11.57;6.95;;;;;;;18.32;62.92;100200.81;5119993;28;20043;-71
2022/09/08 02:04:03;;;;;;;8.68;5.57;;;;;;;18.23;63.48;100204.69;5120393;28;20089;-71
2022/09/08 02:06:29;;;;;;;11.20;6.55;;;;;;;18.13;64.19;100205.06;5120656;28;20054;-71
2022/09/08 02:08:55;;;;;;;10.15;5.80;;;;;;;18.11;64.29;100199.09;5119600;28;20620;-71
2022/09/08 02:11:21;;;;;;;11.20;6.03;;;;;;;18.11;64.36;100193.72;5120017;28;20057;-72
2022/09/08 02:13:48;;;;;;;9.52;6.45;;;;;;;18.10;64.26;100187.53;5119677;28;20042;-71
2022/09/08 02:16:13;;;;;;;10.77;6.15;;;;;;;18.16;64.18;100186.75;5119780;28;20096;-71
2022/09/08 02:18:39;;;;;;;13.30;5.93;;;;;;;18.05;64.34;100181.97;5120605;28;20028;-70
2022/09/08 02:21:17;;;;;;;7.65;5.70;;;;;;;18.09;64.71;100177.03;5119613;28;20028;-71
2022/09/08 02:23:45;;;;;;;13.50;5.88;;;;;;;18.12;64.59;100173.94;5115446;28;20040;-71
2022/09/08 02:26:18;;;;;;;10.75;6.30;;;;;;;18.09;65.07;100166.31;5120763;28;20344;-71
2022/09/08 02:28:45;;;;;;;13.23;6.18;;;;;;;18.16;64.71;100175.19;5116590;28;20028;-71
2022/09/08 02:31:10;;;;;;;10.80;5.90;;;;;;;18.08;65.23;100180.72;5120367;28;20051;-71
2022/09/08 02:33:36;;;;;;;10.45;6.30;;;;;;;17.86;65.72;100180.84;5119487;28;20050;-71
2022/09/08 02:36:03;;;;;;;13.48;5.68;;;;;;;17.86;65.89;100178.16;5120391;28;20039;-71
2022/09/08 02:38:29;;;;;;;10.10;6.15;;;;;;;17.71;66.80;100184.69;5119538;28;20032;-71
2022/09/08 02:40:55;;;;;;;14.38;7.25;;;;;;;17.60;67.48;100179.81;5120407;28;20050;-71
2022/09/08 02:43:22;;;;;;;13.38;6.50;;;;;;;17.78;66.75;100174.81;5118900;28;20040;-71
2022/09/08 02:45:47;;;;;;;13.15;7.00;;;;;;;17.83;66.74;100180.41;5119486;28;20054;-71
2022/09/08 02:48:13;;;;;;;15.90;7.10;;;;;;;17.68;67.59;100177.84;5121034;28;20055;-71
2022/09/08 02:50:39;;;;;;;14.30;6.32;;;;;;;17.42;67.72;100149.03;5119266;28;20038;-71
2022/09/08 02:53:05;;;;;;;13.23;6.63;;;;;;;17.54;68.72;100171.53;5119660;28;20043;-71
2022/09/08 02:55:31;;;;;;;12.13;6.45;;;;;;;17.75;67.61;100169.88;5119252;28;20015;-71
2022/09/08 02:57:57;;;;;;;10.35;6.22;;;;;;;17.52;68.29;100165.56;5119916;28;20232;-71
2022/09/08 03:00:29;;;;;;;14.15;5.93;;;;;;;17.31;69.88;100162.13;5100400;28;20882;-71
2022/09/08 03:02:55;;;;;;;8.70;6.15;;;;;;;17.42;69.76;100173.09;5118536;28;20039;-71
2022/09/08 03:05:20;;;;;;;7.95;5.72;;;;;;;17.56;68.67;100174.03;5119409;28;20019;-71
2022/09/08 03:07:45;;;;;;;15.93;7.70;;;;;;;17.51;68.89;100177.28;5119751;28;20036;-71
2022/09/08 03:10:11;;;;;;;10.05;6.35;;;;;;;17.30;70.12;100180.03;5118855;28;20247;-71
2022/09/08 03:12:37;;;;;;;10.48;6.25;;;;;;;17.38;69.69;100179.88;5119367;28;20055;-71
2022/09/08 03:15:02;;;;;;;10.82;6.20;;;;;;;17.33;69.84;100179.63;5118623;28;20452;-71
2022/09/08 03:17:28;;;;;;;10.82;6.05;;;;;;;17.28;70.06;100182.06;5119831;28;20023;-71
2022/09/08 03:19:54;;;;;;;12.27;6.10;;;;;;;17.21;69.71;100182.03;5118503;28;20047;-71
2022/09/08 03:22:20;;;;;;;9.38;6.18;;;;;;;17.10;70.42;100190.59;5117982;28;20077;-70
2022/09/08 03:24:46;;;;;;;14.55;6.55;;;;;;;16.95;71.08;100199.72;5119342;28;20201;-71
2022/09/08 03:27:12;;;;;;;9.80;6.25;;;;;;;16.99;71.56;100211.69;5118193;28;20024;-71
2022/09/08 03:29:38;;;;;;;11.00;6.32;;;;;;;16.87;71.60;100209.53;5118532;28;20077;-71
2022/09/08 03:32:04;;;;;;;14.80;6.75;;;;;;;16.68;73.00;100201.31;5119887;28;20031;-72
2022/09/08 03:34:29;;;;;;;13.80;6.82;;;;;;;16.73;72.81;100201.56;5117970;28;20313;-71
2022/09/08 03:36:55;;;;;;;9.05;6.32;;;;;;;16.83;72.36;100202.91;5118505;27;20028;-71
2022/09/08 03:39:21;;;;;;;12.40;6.65;;;;;;;16.88;72.10;100205.81;5104600;28;20027;-71
2022/09/08 03:41:47;;;;;;;13.48;6.63;;;;;;;16.93;71.59;100210.59;5117890;28;20039;-70
2022/09/08 03:44:12;;;;;;;10.75;6.65;;;;;;;17.02;71.25;100214.78;5118266;28;20039;-71
2022/09/08 03:46:37;;;;;;;16.27;6.47;;;;;;;17.01;71.66;100213.16;5118452;28;20016;-71
2022/09/08 03:49:04;;;;;;;12.00;6.72;;;;;;;17.19;70.81;100205.47;5118380;28;20043;-71
2022/09/08 03:51:30;;;;;;;15.85;6.80;;;;;;;17.16;70.79;100200.50;5118846;28;20031;-72
2022/09/08 03:54:46;;;;;;;8.85;6.15;;;;;;;17.01;71.32;100209.63;5118153;28;20032;-71
2022/09/08 03:56:44;;;;;;;10.60;6.70;;;;;;;16.95;71.93;100207.72;5116998;28;20280;-71
2022/09/08 03:59:11;;;;;;;7.93;6.10;;;;;;;17.08;70.92;100208.69;5117864;28;20054;-70
2022/09/08 04:01:37;;;;;;;11.77;5.95;;;;;;;17.08;70.26;100173.91;5119090;28;20059;-71
2022/09/08 04:04:03;;;;;;;13.43;5.93;;;;;;;17.09;70.90;100196.13;5117877;28;20109;-71
2022/09/08 04:06:29;;;;;;;15.73;6.57;;;;;;;17.19;70.87;100197.44;5119101;28;20031;-70
2022/09/08 04:08:54;;;;;;;20.60;6.43;;;;;;;17.36;69.64;100179.25;5116897;28;20028;-70
2022/09/08 04:11:20;;;;;;;18.48;6.60;;;;;;;17.47;69.25;100192.09;5117721;28;20027;-70
2022/09/08 04:13:46;;;;;;;15.15;6.95;;;;;;;17.54;68.65;100205.53;5099772;28;20125;-70
2022/09/08 04:16:12;;;;;;;13.48;6.95;;;;;;;17.53;68.58;100199.34;5119266;28;20023;-70
2022/09/08 04:18:37;;;;;;;9.93;6.30;;;;;;;17.54;68.81;100216.22;5098993;28;20309;-71
2022/09/08 04:21:04;;;;;;;13.05;6.20;;;;;;;17.56;68.40;100206.97;5118862;28;20027;-71
2022/09/08 04:23:31;;;;;;;13.48;5.93;;;;;;;17.62;68.61;100224.13;5117331;28;20231;-71
2022/09/08 04:25:59;;;;;;;13.38;6.18;;;;;;;17.45;69.20;100210.19;5100427;28;20102;-71
2022/09/08 04:28:25;;;;;;;11.38;6.43;;;;;;;17.34;69.74;100213.41;5118739;28;20038;-71
2022/09/08 04:30:50;;;;;;;25.77;8.70;;;;;;;17.49;69.32;100213.31;5117665;28;20028;-70
2022/09/08 04:33:16;;;;;;;13.90;7.28;;;;;;;17.44;69.61;100215.75;5117524;28;20031;-71
2022/09/08 04:35:42;;;;;;;20.35;7.10;;;;;;;17.31;69.95;100218.31;5118701;28;20332;-71
2022/09/08 04:38:08;;;;;;;14.77;6.88;;;;;;;17.41;69.92;100227.66;5117459;28;20023;-71
2022/09/08 04:40:34;;;;;;;14.93;7.53;;;;;;;17.38;70.05;100221.88;5118468;28;20027;-71
2022/09/08 04:42:59;;;;;;;15.32;7.43;;;;;;;17.44;69.78;100221.94;5117516;28;20104;-71
2022/09/08 04:45:25;;;;;;;17.98;8.90;;;;;;;17.32;70.03;100187.88;5099934;28;20028;-70
2022/09/08 04:47:51;;;;;;;13.77;7.57;;;;;;;17.74;69.16;100227.97;5118288;28;20034;-71
2022/09/08 04:50:16;;;;;;;20.67;7.28;;;;;;;17.82;68.42;100227.81;5117494;28;20039;-71
2022/09/08 04:52:42;;;;;;;13.07;6.90;;;;;;;17.72;68.80;100224.66;5117248;28;20067;-71
2022/09/08 04:55:08;;;;;;;15.57;5.90;;;;;;;17.64;69.21;100231.94;5118660;28;20039;-71
2022/09/08 04:57:34;;;;;;;10.35;6.25;;;;;;;17.75;69.33;100250.22;5121504;28;20231;-71
2022/09/08 04:59:59;;;;;;;11.80;6.60;;;;;;;17.79;69.42;100243.44;5118802;28;20039;-71
2022/09/08 05:02:28;;;;;;;13.50;7.10;;;;;;;17.79;69.59;100243.44;5121796;28;20099;-71
2022/09/08 05:04:53;;;;;;;13.88;7.03;;;;;;;17.92;69.24;100251.56;5121527;28;20020;-71
2022/09/08 05:07:19;;;;;;;17.67;7.38;;;;;;;17.82;69.81;100249.22;5122171;28;20101;-71
2022/09/08 05:09:44;;;;;;;12.80;6.80;;;;;;;17.91;69.55;100247.22;5121109;28;20330;-71
2022/09/08 05:12:10;;;;;;;15.75;6.88;;;;;;;17.89;69.68;100243.91;5121117;28;20039;-71
2022/09/08 05:14:35;;;;;;;16.48;6.70;;;;;;;18.05;69.61;100246.28;5122071;28;20107;-71
2022/09/08 05:17:01;;;;;;;18.35;6.53;;;;;;;18.43;67.70;100237.78;5121039;28;20031;-71
2022/09/08 05:19:27;;;;;;;15.55;7.53;;;;;;;18.91;65.91;100243.94;5121950;28;20230;-71
2022/09/08 05:21:52;;;;;;;19.48;6.03;;;;;;;19.23;65.25;100250.38;5121150;28;20285;-71
2022/09/08 05:24:19;;;;;;;14.75;6.85;;;;;;;19.73;63.13;100242.72;5120266;28;20058;-71
2022/09/08 05:26:44;;;;;;;15.63;6.13;;;;;;;20.00;62.32;100254.28;5122528;28;20073;-71
2022/09/08 05:29:10;;;;;;;18.92;6.13;;;;;;;20.01;62.31;100246.00;5120614;28;20035;-71
2022/09/08 05:31:35;;;;;;;12.70;5.50;;;;;;;19.99;61.82;100250.75;5121056;28;20027;-71
2022/09/08 05:34:01;;;;;;;10.30;5.68;;;;;;;20.46;60.51;100256.00;5121190;28;20046;-71
2022/09/08 05:36:32;;;;;;;11.75;5.70;;;;;;;20.66;59.43;100249.47;5120856;28;20056;-71
2022/09/08 05:38:59;;;;;;;13.05;5.25;;;;;;;21.06;58.08;100243.88;5120674;28;20129;-71
2022/09/08 05:41:25;;;;;;;12.38;5.50;;;;;;;21.39;56.87;100249.03;5121395;28;20019;-71
2022/09/08 05:43:52;;;;;;;9.93;5.20;;;;;;;21.54;55.74;100241.44;5121595;28;20325;-71
2022/09/08 05:46:17;;;;;;;15.40;6.03;;;;;;;21.84;55.56;100246.94;5121832;28;20064;-71
2022/09/08 05:48:43;;;;;;;13.40;6.07;;;;;;;22.03;54.15;100253.22;5120545;28;20067;-71
2022/09/08 05:51:10;;;;;;;11.88;5.45;;;;;;;22.03;54.41;100249.72;5120978;28;20069;-71
2022/09/08 05:53:36;;;;;;;16.40;6.53;;;;;;;22.31;53.34;100255.38;5120845;28;20031;-71
2022/09/08 05:56:04;;;;;;;11.88;6.40;;;;;;;22.45;53.31;100256.88;5120110;28;20249;-71
2022/09/08 05:58:30;;;;;;;9.38;5.20;;;;;;;22.56;52.42;100244.47;5117685;28;20039;-71
2022/09/08 06:01:05;;;;;;;10.27;5.57;;;;;;;22.52;52.57;100254.91;5090448;28;20031;-71
2022/09/08 06:03:31;;;;;;;13.70;6.50;;;;;;;22.75;51.36;100234.47;5120192;28;20058;-71
2022/09/08 06:06:02;;;;;;;9.98;5.40;;;;;;;22.98;51.20;100234.59;5119814;28;20027;-71
2022/09/08 06:08:27;;;;;;;13.82;4.93;;;;;;;23.11;50.24;100234.38;5120985;28;20031;-71
2022/09/08 06:10:53;;;;;;;12.52;5.32;;;;;;;23.31;49.98;100225.13;5119819;28;20042;-71
2022/09/08 06:13:21;;;;;;;7.18;5.10;;;;;;;23.79;48.42;100230.31;5119977;28;20055;-71
2022/09/08 06:15:48;;;;;;;12.07;5.18;;;;;;;23.96;47.93;100225.03;5120209;28;20093;-71
2022/09/08 06:18:15;;;;;;;8.77;4.53;;;;;;;24.10;47.59;100234.53;5119458;28;20391;-71
2022/09/08 06:20:40;;;;;;;11.02;5.05;;;;;;;24.06;47.79;100233.38;5101606;28;20034;-71
2022/09/08 06:23:06;;;;;;;12.85;4.85;;;;;;;24.33;47.28;100236.41;5120355;28;20039;-71
2022/09/08 06:25:38;;;;;;;7.60;5.05;;;;;;;24.28;46.49;100236.28;5119686;28;20031;-71
2022/09/08 06:28:29;;;;;;;11.25;4.68;;;;;;;24.57;45.36;100235.25;5119438;28;20210;-71
2022/09/08 06:30:55;;;;;;;9.73;4.55;;;;;;;24.62;45.09;100229.09;5117730;27;20028;-72
2022/09/08 06:33:34;;;;;;;8.70;4.15;;;;;;;24.74;44.53;100232.56;5119015;28;20095;-71
2022/09/08 06:36:13;;;;;;;12.70;4.45;;;;;;;24.90;43.53;100241.81;5119412;28;20062;-71
2022/09/08 06:38:54;;;;;;;9.55;5.07;;;;;;;25.16;42.75;100232.28;5119620;28;20031;-71
2022/09/08 06:41:26;;;;;;;8.75;4.20;;;;;;;25.41;42.16;100232.69;5119102;28;20035;-71
2022/09/08 06:43:58;;;;;;;13.18;4.65;;;;;;;25.37;42.70;100242.38;5119127;28;20043;-71
2022/09/08 06:46:27;;;;;;;9.38;5.13;;;;;;;25.45;41.65;100228.41;5117764;28;20710;-71
2022/09/08 06:48:54;;;;;;;11.68;6.53;;;;;;;25.73;41.39;100233.75;5117402;28;20087;-71
2022/09/08 06:51:38;;;;;;;8.35;4.40;;;;;;;26.02;39.09;100226.31;5119219;28;20028;-72
2022/09/08 06:54:10;;;;;;;7.20;5.00;;;;;;;26.02;40.45;100229.00;5117613;28;20340;-71
2022/09/08 06:56:57;;;;;;;10.77;5.07;;;;;;;26.06;40.44;100232.03;5118394;28;20027;-71
2022/09/08 06:59:47;;;;;;;6.97;4.78;;;;;;;26.24;40.99;100236.34;5118221;28;20091;-72
2022/09/08 07:02:23;;;;;;;8.88;5.20;;;;;;;26.45;39.36;100240.16;5117599;28;20067;-72
2022/09/08 07:04:57;;;;;;;9.00;4.78;;;;;;;26.71;40.05;100226.59;5118046;28;20062;-73
2022/09/08 07:07:28;;;;;;;7.75;5.15;;;;;;;27.06;38.52;100233.50;5117972;28;20030;-73
2022/09/08 07:10:10;;;;;;;10.20;4.50;;;;;;;27.12;37.89;100234.34;5117167;28;20263;-73
2022/09/08 07:13:00;;;;;;;9.10;4.95;;;;;;;27.14;37.83;100230.28;5116339;28;20031;-72
2022/09/08 07:16:01;;;;;;;7.95;4.35;;;;;;;27.21;37.62;100235.50;5117128;28;20095;-72
2022/09/08 07:18:41;;;;;;;9.15;4.53;;;;;;;27.39;37.09;100237.81;5112488;28;20051;-72
2022/09/08 07:21:19;;;;;;;11.30;4.38;;;;;;;27.17;37.56;100235.22;5117696;28;20076;-72
2022/09/08 07:23:46;;;;;;;9.82;3.97;;;;;;;27.35;36.54;100226.66;5117111;28;20063;-72
2022/09/08 07:26:17;;;;;;;7.43;4.05;;;;;;;27.63;36.46;100235.56;5118260;28;20035;-72
2022/09/08 07:28:45;;;;;;;8.68;4.57;;;;;;;27.85;36.32;100241.69;5098654;28;20031;-72
2022/09/08 07:31:19;;;;;;;13.85;4.78;;;;;;;27.84;35.97;100223.72;5117663;28;20094;-71
2022/09/08 07:33:47;;;;;;;8.65;4.63;;;;;;;27.96;35.60;100240.66;5117443;28;20042;-71
2022/09/08 07:36:27;;;;;;;8.48;4.63;;;;;;;27.96;35.45;100227.06;5118002;27;20035;-71
2022/09/08 07:38:59;;;;;;;7.90;4.20;;;;;;;28.10;35.24;100234.78;5117774;28;20080;-72
2022/09/08 07:41:45;;;;;;;8.43;4.50;;;;;;;27.94;36.39;100233.84;5117268;28;20046;-72
2022/09/08 07:44:18;;;;;;;7.15;4.05;;;;;;;27.31;36.90;100227.44;5117702;28;20287;-72
2022/09/08 07:47:08;;;;;;;10.05;4.30;;;;;;;27.49;36.28;100232.47;5117009;28;20015;-71
2022/09/08 07:49:41;;;;;;;7.03;4.18;;;;;;;27.73;35.83;100227.47;5116448;28;20339;-72
2022/09/08 07:52:34;;;;;;;14.83;5.47;;;;;;;28.07;35.13;100233.38;5116529;28;20035;-71
2022/09/08 07:55:23;;;;;;;9.05;4.38;;;;;;;28.01;35.75;100233.59;5116844;28;20532;-71
2022/09/08 07:57:54;;;;;;;12.00;4.38;;;;;;;27.86;35.41;100232.44;5118061;28;20724;-71
2022/09/08 08:00:41;;;;;;;6.53;3.83;;;;;;;27.94;34.71;100233.84;5117791;28;20027;-73
2022/09/08 08:03:27;;;;;;;6.18;4.07;;;;;;;27.90;35.42;100239.00;5117271;28;20027;-72
2022/09/08 08:06:14;;;;;;;6.50;3.63;;;;;;;28.20;35.75;100232.91;5094256;28;20084;-71
2022/09/08 08:09:03;;;;;;;13.18;4.47;;;;;;;27.59;35.95;100239.88;5117771;28;20047;-72
2022/09/08 08:11:51;;;;;;;9.90;4.32;;;;;;;27.84;35.62;100241.97;5116968;28;20046;-72
2022/09/08 08:14:22;;;;;;;8.52;4.20;;;;;;;28.09;35.14;100233.09;5116567;28;20237;-72
2022/09/08 08:17:12;;;;;;;13.27;4.20;;;;;;;28.37;34.52;100231.91;5117393;28;20024;-72
2022/09/08 08:19:40;;;;;;;6.43;3.95;;;;;;;27.98;35.17;100233.06;5115606;28;20100;-72
2022/09/08 08:22:21;;;;;;;8.38;4.28;;;;;;;28.09;35.29;100230.38;5117030;28;20085;-72
2022/09/08 08:25:29;;;;;;;7.80;3.83;;;;;;;28.42;34.82;100227.28;5116300;28;20035;-72
2022/09/08 08:28:16;;;;;;;12.40;4.15;;;;;;;28.52;34.15;100223.78;5117373;28;20077;-72
2022/09/08 08:30:50;;;;;;;8.10;3.90;;;;;;;28.66;33.87;100221.34;5120274;28;20051;-72
2022/09/08 08:33:21;;;;;;;7.68;4.18;;;;;;;28.75;34.16;100217.00;5121914;28;20316;-72
2022/09/08 08:36:00;;;;;;;14.55;4.80;;;;;;;28.34;35.13;100221.56;5121206;28;20032;-72
2022/09/08 08:38:32;;;;;;;8.43;3.85;;;;;;;28.49;34.24;100218.88;5121720;28;20333;-72
2022/09/08 08:40:59;;;;;;;10.13;4.43;;;;;;;28.50;34.88;100207.69;5120664;28;20042;-72
2022/09/08 08:43:25;;;;;;;7.25;3.95;;;;;;;28.20;34.68;100207.59;5120744;28;20363;-72
2022/09/08 08:46:10;;;;;;;8.13;4.68;;;;;;;28.18;34.67;100205.13;5121796;28;20032;-72
2022/09/08 08:49:12;;;;;;;5.55;3.88;;;;;;;28.16;34.53;100196.41;5121218;28;20034;-72
2022/09/08 08:51:47;;;;;;;10.55;4.50;;;;;;;28.09;34.67;100195.84;5101709;28;20042;-72
2022/09/08 08:54:21;;;;;;;7.88;4.03;;;;;;;28.05;34.90;100191.16;5120141;28;20054;-72
2022/09/08 08:57:01;;;;;;;9.00;4.00;;;;;;;28.20;34.88;100181.16;5102566;27;20026;-72
2022/09/08 09:00:03;;;;;;;12.65;3.88;;;;;;;28.48;34.40;100190.00;5119837;28;20031;-72
2022/09/08 09:02:55;;;;;;;9.10;4.05;;;;;;;28.75;34.12;100182.41;5115439;28;20032;-73
2022/09/08 09:05:39;;;;;;;6.35;3.75;;;;;;;28.65;33.97;100182.38;5119281;27;20110;-72
2022/09/08 09:08:26;;;;;;;7.65;3.42;;;;;;;28.74;33.78;100179.94;5119615;28;20043;-72
2022/09/08 09:11:25;;;;;;;5.80;4.18;;;;;;;28.58;34.41;100176.38;5120848;28;20038;-72
2022/09/08 09:13:56;;;;;;;10.27;4.32;;;;;;;28.49;33.54;100173.38;5119847;28;20031;-72
2022/09/08 09:16:55;;;;;;;10.52;4.20;;;;;;;27.99;35.29;100166.66;5115166;28;20233;-72
2022/09/08 09:19:23;;;;;;;7.57;3.65;;;;;;;28.03;34.82;100168.84;5119936;28;20482;-72
2022/09/08 09:22:13;;;;;;;9.40;4.00;;;;;;;27.86;35.45;100152.72;5120048;28;20077;-72
2022/09/08 09:25:03;;;;;;;9.20;4.22;;;;;;;27.93;35.50;100159.53;5104788;27;20282;-73
2022/09/08 09:27:34;;;;;;;8.52;3.92;;;;;;;27.68;36.01;100154.00;5123467;28;20294;-72
2022/09/08 09:30:12;;;;;;;8.55;3.45;;;;;;;27.65;35.33;100147.19;5124792;28;20137;-72
2022/09/08 09:32:49;;;;;;;7.10;3.72;;;;;;;26.95;36.32;100159.13;5105679;28;20107;-72
2022/09/08 09:35:50;;;;;;;8.27;4.07;;;;;;;26.92;36.79;100148.78;5123435;27;20054;-72
2022/09/08 09:38:32;;;;;;;10.25;3.65;;;;;;;27.14;37.26;100142.50;5060306;28;20056;-72
2022/09/08 09:40:58;;;;;;;7.63;3.47;;;;;;;26.25;37.28;100138.38;5117157;28;20055;-72
2022/09/08 09:43:55;;;;;;;8.50;4.10;;;;;;;26.20;37.91;100135.59;5105428;28;20043;-72
2022/09/08 09:46:52;;;;;;;8.02;3.90;;;;;;;26.14;38.11;100136.63;5122775;28;20329;-72
2022/09/08 09:49:49;;;;;;;9.32;4.20;;;;;;;26.28;38.44;100128.88;5122944;28;20317;-72
2022/09/08 09:52:34;;;;;;;11.02;4.45;;;;;;;26.65;38.02;100129.81;5093864;28;20333;-72
2022/09/08 09:55:04;;;;;;;9.30;3.92;;;;;;;26.80;37.79;100117.44;5123747;28;20227;-72
2022/09/08 09:58:21;;;;;;;8.15;3.78;;;;;;;27.11;36.90;100118.53;5123009;28;20031;-72
2022/09/08 10:01:14;;;;;;;7.95;3.63;;;;;;;27.10;35.58;100111.47;5088342;28;20047;-72
2022/09/08 10:03:48;;;;;;;12.55;4.40;;;;;;;26.90;36.29;100112.09;5123662;28;20354;-72
2022/09/08 10:06:24;;;;;;;6.20;3.63;;;;;;;26.68;36.73;100113.00;5123803;28;20028;-72
2022/09/08 10:09:45;;;;;;;5.68;3.55;;;;;;;26.75;36.52;100117.41;5123357;28;20036;-72
2022/09/08 10:12:43;;;;;;;6.38;3.45;;;;;;;26.40;37.57;100107.88;5057652;28;20460;-72
2022/09/08 10:15:50;;;;;;;7.50;4.00;;;;;;;26.34;37.77;100114.31;5123090;27;20221;-72
2022/09/08 10:18:49;;;;;;;7.65;3.97;;;;;;;26.37;37.64;100103.75;5087531;28;20271;-71
2022/09/08 10:21:23;;;;;;;9.40;3.70;;;;;;;26.44;37.48;100098.13;5119882;28;20036;-72
2022/09/08 10:24:07;;;;;;;6.43;3.20;;;;;;;25.99;37.31;100103.84;5119515;28;20067;-72
2022/09/08 10:26:35;;;;;;;7.28;4.05;;;;;;;26.17;36.63;100095.38;5119368;27;20031;-72
2022/09/08 10:29:17;;;;;;;7.75;3.55;;;;;;;26.44;37.86;100091.88;5118892;28;20047;-72
2022/09/08 10:32:17;;;;;;;10.52;3.95;;;;;;;26.60;36.99;100085.50;5117680;28;20032;-72
2022/09/08 10:35:04;;;;;;;4.97;3.30;;;;;;;26.75;36.72;100076.66;5119993;28;20031;-72
2022/09/08 10:37:54;;;;;;;8.75;3.47;;;;;;;27.03;35.97;100077.16;5118703;28;20061;-72
2022/09/08 10:40:34;;;;;;;6.30;3.53;;;;;;;27.15;36.79;100057.97;5117916;28;20058;-72
2022/09/08 10:43:39;;;;;;;5.78;3.55;;;;;;;27.36;36.72;100058.88;5117957;28;20094;-72
2022/09/08 10:46:20;;;;;;;4.70;3.67;;;;;;;27.14;37.81;100053.59;5119797;28;20035;-72
2022/09/08 10:48:45;;;;;;;5.80;3.60;;;;;;;26.84;37.54;100056.06;5125976;27;20109;-72
2022/09/08 10:51:22;;;;;;;6.20;3.55;;;;;;;26.73;38.00;100050.56;5123583;28;20325;-72
2022/09/08 10:54:06;;;;;;;6.45;3.58;;;;;;;26.80;37.12;100054.97;5120655;28;20042;-72
2022/09/08 10:56:31;;;;;;;7.77;3.70;;;;;;;26.84;37.21;100058.78;5121916;28;20086;-72
2022/09/08 10:59:15;;;;;;;8.57;4.20;;;;;;;26.91;37.29;100049.31;5122596;28;20080;-72
2022/09/08 11:01:59;;;;;;;;;;;;;;;26.75;37.39;100042.16;5105111;28;20238;-72
2022/09/08 11:04:55;;;;;;;9.67;3.90;;;;;;;26.78;37.12;100038.91;5121792;27;19923;-72
2022/09/08 11:07:30;;;;;;;5.40;3.40;;;;;;;26.42;38.08;100029.69;5121608;28;20035;-72
2022/09/08 11:10:16;;;;;;;8.93;3.80;;;;;;;26.66;37.97;100024.72;5122305;28;20511;-72
2022/09/08 11:12:50;;;;;;;9.15;3.92;;;;;;;26.87;37.54;100018.31;5121626;27;20085;-72
2022/09/08 11:15:51;;;;;;;9.32;4.13;;;;;;;27.04;37.38;100010.03;5122194;28;20034;-72
2022/09/08 11:18:52;;;;;;;5.97;3.50;;;;;;;26.98;38.62;100003.75;5123452;27;20032;-72
2022/09/08 11:21:49;;;;;;;13.15;4.40;;;;;;;26.75;38.78;99995.16;5121103;28;20027;-72
2022/09/08 11:24:22;;;;;;;7.78;3.92;;;;;;;26.94;38.77;100002.59;5080017;28;20081;-72
2022/09/08 11:27:06;;;;;;;6.05;3.90;;;;;;;27.07;37.44;99997.84;5097291;28;20016;-72
2022/09/08 11:29:35;;;;;;;;;;;;;;;26.95;37.70;100001.53;5100019;28;20096;-72
2022/09/08 11:32:31;;;;;;;4.78;3.80;;;;;;;27.05;38.64;99998.09;5099120;28;19912;-72
2022/09/08 11:35:36;;;;;;;12.00;4.15;;;;;;;26.88;38.83;99995.50;5098856;28;20078;-72
2022/09/08 11:38:10;;;;;;;7.90;3.95;;;;;;;27.25;38.80;99990.03;5087527;28;20063;-72
2022/09/08 11:40:54;;;;;;;6.53;3.60;;;;;;;27.28;36.97;99991.41;5098974;28;20677;-72
2022/09/08 11:43:31;;;;;;;7.93;3.85;;;;;;;27.35;36.87;99992.81;5096389;28;20028;-72
2022/09/08 11:46:06;;;;;;;6.85;3.58;;;;;;;27.47;38.00;99986.31;5097926;28;20393;-72
2022/09/08 11:48:53;;;;;;;6.63;3.78;;;;;;;27.32;37.87;99978.91;5096088;28;20024;-72
2022/09/08 11:52:01;;;;;;;8.43;3.90;;;;;;;27.32;37.90;99981.66;5095903;28;20042;-72
2022/09/08 11:54:54;;;;;;;6.15;3.50;;;;;;;27.21;38.15;99986.22;5096140;28;20325;-72
2022/09/08 11:57:31;;;;;;;9.18;3.95;;;;;;;27.23;37.22;99978.63;5096396;28;20055;-72
2022/09/08 12:00:54;;;;;;;9.13;3.60;;;;;;;27.24;37.47;99971.28;5097184;28;20031;-73